Meteorología y climatología de Navarra
Datos de la estación - Meteo Navarra

Estación de Bera (Larrategaña) GN

Altitud 306 m.


Datos desde el 02/08/2020 hasta el 03/08/2020 en horario solar
Los datos son PROVISIONALES

Anterior Página 1 de 1 Siguiente Descargar: Formato para Excel 2000 o superior   Formato csv   Formato para OpenOffice Calc
Fecha Temperatura Humedad relativa Radiación global Insolación Precipitación Vel. viento 10 m Vel. viento 10 m Dir. viento 10 m
ºC % W/m² s l/m² m/s km/h º
02/08/2020 0:00 18.0 97 0.0 0 0.0 0.8 3.0 3
02/08/2020 0:10 18.0 98 0.0 0 0.0 1.1 4.1 16
02/08/2020 0:20 17.9 98 0.0 0 0.0 1.3 4.6 9
02/08/2020 0:30 17.7 98 0.0 0 0.0 1.1 3.9 26
02/08/2020 0:40 17.7 98 0.0 0 0.0 0.5 1.9 26
02/08/2020 0:50 17.7 98 0.0 0 0.0 0.3 1.2 333
02/08/2020 1:00 17.6 98 0.0 0 0.0 0.8 3.0 295
02/08/2020 1:10 17.5 98 0.0 0 0.0 0.8 2.7 46
02/08/2020 1:20 17.6 98 0.0 0 0.0 1.1 3.9 36
02/08/2020 1:30 17.6 99 0.0 0 0.0 1.0 3.4 349
02/08/2020 1:40 17.5 99 0.0 0 0.0 0.7 2.4 37
02/08/2020 1:50 17.4 99 0.0 0 0.0 0.5 1.8 352
02/08/2020 2:00 17.3 97 0.0 0 0.0 1.2 4.3 347
02/08/2020 2:10 17.5 93 0.0 0 0.0 1.5 5.5 294
02/08/2020 2:20 17.6 93 0.0 0 0.0 1.6 5.6 307
02/08/2020 2:30 17.5 93 0.0 0 0.0 1.5 5.5 303
02/08/2020 2:40 17.4 94 0.0 0 0.0 1.0 3.7 335
02/08/2020 2:50 17.4 95 0.0 0 0.0 1.1 4.0 12
02/08/2020 3:00 17.3 95 0.0 0 0.0 1.5 5.4 9
02/08/2020 3:10 17.4 94 0.0 0 0.0 1.0 3.4 354
02/08/2020 3:20 17.4 95 0.0 0 0.0 1.0 3.6 239
02/08/2020 3:30 17.2 98 0.0 0 0.0 0.8 2.8 226
02/08/2020 3:40 17.1 98 0.0 0 0.0 0.5 1.8 247
02/08/2020 3:50 17.1 99 0.0 0 0.0 0.5 1.7 253
02/08/2020 4:00 17.1 99 0.0 0 0.0 0.9 3.2 229
02/08/2020 4:10 17.0 99 0.0 0 0.0 0.8 3.0 258
02/08/2020 4:20 17.1 99 0.0 0 0.0 1.0 3.6 337
02/08/2020 4:30 17.1 99 0.0 0 0.0 1.3 4.8 288
02/08/2020 4:40 17.1 99 0.0 0 0.1 0.7 2.5 354
02/08/2020 4:50 17.0 99 0.0 0 0.0 0.4 1.4 42
02/08/2020 5:00 17.0 99 0.0 0 0.0 0.7 2.5 46
02/08/2020 5:10 16.9 99 0.0 0 0.0 0.7 2.4 29
02/08/2020 5:20 16.8 99 0.0 0 0.0 0.4 1.5 8
02/08/2020 5:30 16.8 99 0.0 0 0.0 0.2 0.6 282
02/08/2020 5:40 16.9 99 0.6 0 0.0 1.2 4.2 338
02/08/2020 5:50 16.9 99 20.0 0 0.0 0.4 1.4 1
02/08/2020 6:00 16.9 99 22.2 0 0.0 0.7 2.6 311
02/08/2020 6:10 17.1 99 4.3 0 0.1 1.3 4.6 321
02/08/2020 6:20 16.9 99 23.4 0 0.0 0.7 2.7 348
02/08/2020 6:30 16.9 99 37.1 0 0.0 0.5 1.7 268
02/08/2020 6:40 17.1 99 51.2 0 0.0 0.8 2.9 322
02/08/2020 6:50 17.0 97 83.9 0 0.0 1.2 4.3 349
02/08/2020 7:00 17.3 94 86.1 0 0.0 1.4 5.0 341
02/08/2020 7:10 17.5 92 116.2 0 0.0 1.4 5.2 345
02/08/2020 7:20 17.8 91 88.8 0 0.0 1.5 5.4 340
02/08/2020 7:30 17.8 90 91.1 0 0.0 1.3 4.6 321
02/08/2020 7:40 17.9 91 99.4 0 0.0 1.3 4.8 307
02/08/2020 7:50 17.8 91 64.3 0 0.0 1.1 3.9 330
02/08/2020 8:00 17.8 91 116.9 0 0.0 0.9 3.3 338
02/08/2020 8:10 18.2 90 208.6 0 0.0 1.1 3.8 337
02/08/2020 8:20 18.4 90 185.7 0 0.0 1.5 5.4 353
02/08/2020 8:30 18.3 90 138.1 0 0.0 1.2 4.2 359
02/08/2020 8:40 18.3 90 166.5 0 0.0 1.0 3.5 15
02/08/2020 8:50 18.5 90 220.9 0 0.0 1.2 4.3 6
02/08/2020 9:00 18.8 83 422.8 408 0.0 1.7 6.2 346
02/08/2020 9:10 19.5 80 503.5 550 0.0 2.2 7.7 360
02/08/2020 9:20 19.3 79 259.1 0 0.0 1.8 6.4 343
02/08/2020 9:30 19.1 81 166.4 0 0.0 1.5 5.5 347
02/08/2020 9:40 18.8 81 216.4 0 0.0 1.5 5.5 337
02/08/2020 9:50 18.8 81 245.3 0 0.0 1.1 4.0 334
02/08/2020 10:00 19.1 80 294.6 0 0.0 1.0 3.4 344
02/08/2020 10:10 19.2 79 254.6 0 0.0 0.8 2.8 324
02/08/2020 10:20 19.4 79 239.2 0 0.0 0.7 2.5 341
02/08/2020 10:30 19.4 81 338.6 0 0.0 0.9 3.1 20
02/08/2020 10:40 19.5 81 228.4 0 0.0 2.0 7.2 32
02/08/2020 10:50 19.1 85 288.3 0 0.0 2.3 8.2 40
02/08/2020 11:00 19.2 82 370.6 0 0.0 2.3 8.2 31
02/08/2020 11:10 19.5 78 443.6 14 0.0 2.4 8.5 36
02/08/2020 11:20 19.9 78 572.7 600 0.0 3.3 11.8 38
02/08/2020 11:30 20.5 76 757.4 600 0.0 2.4 8.7 36
02/08/2020 11:40 20.8 72 751.5 600 0.0 3.0 10.9 38
02/08/2020 11:50 20.4 74 518.0 370 0.0 2.8 10.2 25
02/08/2020 12:00 20.4 76 596.3 504 0.0 2.4 8.6 11
02/08/2020 12:10 20.7 74 694.4 600 0.0 1.9 7.0 358
02/08/2020 12:20 20.7 73 516.8 322 0.0 2.4 8.7 11
02/08/2020 12:30 20.4 73 462.5 124 0.0 2.0 7.2 5
02/08/2020 12:40 20.4 73 448.8 80 0.0 1.9 7.0 4
02/08/2020 12:50 20.3 73 271.2 0 0.0 2.0 7.3 3
02/08/2020 13:00 19.9 76 231.3 0 0.0 1.6 5.9 12
02/08/2020 13:10 19.7 75 222.9 0 0.0 1.8 6.6 360
02/08/2020 13:20 19.6 76 217.3 0 0.0 2.1 7.6 19
02/08/2020 13:30 19.3 78 154.1 0 0.0 2.5 9.0 19
02/08/2020 13:40 19.2 79 165.7 0 0.0 2.0 7.1 7
02/08/2020 13:50 19.3 79 333.7 0 0.0 2.0 7.2 14
02/08/2020 14:00 19.6 77 326.8 6 0.0 2.6 9.3 13
02/08/2020 14:10 19.3 78 181.4 0 0.0 1.9 6.8 21
02/08/2020 14:20 19.1 80 190.3 0 0.0 1.7 6.0 15
02/08/2020 14:30 19.1 80 249.4 0 0.0 2.1 7.4 13
02/08/2020 14:40 19.1 78 203.0 0 0.0 2.0 7.0 1
02/08/2020 14:50 19.1 76 220.6 0 0.0 2.1 7.5 349
02/08/2020 15:00 19.1 77 140.5 0 0.0 1.5 5.5 2
02/08/2020 15:10 19.0 78 123.6 0 0.0 1.4 5.0 347
02/08/2020 15:20 19.1 78 172.9 0 0.0 1.5 5.5 345
02/08/2020 15:30 19.0 78 126.1 0 0.0 1.5 5.4 0
02/08/2020 15:40 18.9 81 154.0 0 0.0 1.4 5.0 13
02/08/2020 15:50 19.1 80 177.7 0 0.0 1.3 4.6 5
02/08/2020 16:00 19.3 78 238.3 0 0.0 1.3 4.5 0
02/08/2020 16:10 19.3 77 192.2 0 0.0 1.4 5.0 340
02/08/2020 16:20 19.4 79 236.7 42 0.0 1.3 4.8 348
02/08/2020 16:30 19.6 74 372.8 326 0.0 2.0 7.3 357
02/08/2020 16:40 19.1 78 214.0 92 0.0 2.3 8.2 17
02/08/2020 16:50 19.1 80 363.1 366 0.0 2.1 7.5 19
02/08/2020 17:00 19.0 79 260.3 212 0.0 2.2 8.0 6
02/08/2020 17:10 18.8 80 252.2 254 0.0 2.0 7.1 16
02/08/2020 17:20 18.7 79 184.6 134 0.0 2.6 9.3 24
02/08/2020 17:30 18.3 81 145.6 132 0.0 1.9 7.0 12
02/08/2020 17:40 18.3 81 110.9 0 0.0 2.0 7.2 11
02/08/2020 17:50 18.2 80 95.2 0 0.0 1.8 6.5 1
02/08/2020 18:00 18.1 80 111.9 86 0.0 1.6 5.9 20
02/08/2020 18:10 18.0 81 107.8 80 0.0 1.8 6.5 25
02/08/2020 18:20 18.0 82 78.9 36 0.0 1.6 5.9 11
02/08/2020 18:30 17.9 82 62.8 0 0.0 1.7 6.2 12
02/08/2020 18:40 17.9 83 34.1 0 0.0 1.6 5.6 11
02/08/2020 18:50 17.9 83 20.4 0 0.0 1.5 5.4 12
02/08/2020 19:00 17.8 84 3.1 0 0.0 1.5 5.3 2
02/08/2020 19:10 17.7 84 2.2 0 0.0 1.6 5.6 17
02/08/2020 19:20 17.5 85 0.0 0 0.0 2.0 7.0 34
02/08/2020 19:30 17.4 86 0.0 0 0.0 1.4 5.2 25
02/08/2020 19:40 17.4 85 0.0 0 0.0 1.6 5.9 4
02/08/2020 19:50 17.3 84 0.0 0 0.0 1.7 5.9 21
02/08/2020 20:00 17.2 85 0.0 0 0.0 1.8 6.5 15
02/08/2020 20:10 17.1 84 0.0 0 0.0 2.0 7.1 18
02/08/2020 20:20 17.0 84 0.0 0 0.0 1.8 6.5 19
02/08/2020 20:30 16.7 86 0.0 0 0.0 2.2 7.8 31
02/08/2020 20:40 16.7 86 0.0 0 0.0 1.6 5.7 33
02/08/2020 20:50 16.7 85 0.0 0 0.0 1.2 4.5 13
02/08/2020 21:00 17.0 84 0.0 0 0.0 1.3 4.6 12
02/08/2020 21:10 16.8 86 0.0 0 0.0 1.3 4.7 42
02/08/2020 21:20 16.6 87 0.0 0 0.0 0.9 3.3 24
02/08/2020 21:30 16.8 86 0.0 0 0.0 1.9 6.9 36
02/08/2020 21:40 16.7 87 0.0 0 0.0 1.6 5.8 58
02/08/2020 21:50 16.7 87 0.0 0 0.0 1.5 5.4 40
02/08/2020 22:00 16.6 87 0.0 0 0.0 1.7 6.1 49
02/08/2020 22:10 16.6 85 0.0 0 0.0 1.6 5.7 38
02/08/2020 22:20 16.7 85 0.0 0 0.0 1.6 5.7 44
02/08/2020 22:30 16.6 86 0.0 0 0.0 1.6 5.8 45
02/08/2020 22:40 16.6 85 0.0 0 0.0 1.8 6.4 43
02/08/2020 22:50 16.7 84 0.0 0 0.0 1.7 5.9 50
02/08/2020 23:00 16.5 86 0.0 0 0.0 0.7 2.6 33
02/08/2020 23:10 16.2 87 0.0 0 0.0 1.3 4.6 34
02/08/2020 23:20 16.2 86 0.0 0 0.0 1.4 5.1 60
02/08/2020 23:30 16.3 86 0.0 0 0.0 0.4 1.3 68
02/08/2020 23:40 16.2 88 0.0 0 0.0 0.7 2.6 198
02/08/2020 23:50 16.0 90 0.0 0 0.0 0.8 3.0 207
Anterior Página 1 de 1 Siguiente

NOTA: Tipo de datos según el color:
   - Valores diarios o 10 minutos correctos
   - Valores diarios calculados a partir de un número de datos 10 minutos menor que 144 y mayor que 120, o de un número de datos semihorarios menor que 48 y mayor que 40 (caso de las estaciones de INTIA y del Ministerio)
   - Valores diez minutos estimados


Contacto        Enlaces        Aviso legal